Terminal Aerodrome Forecast
Issued by NWS

Home | Current Version | Previous Version | Text Only | Print | Product List | Glossary Off
Versions: 1 2 3 4 5 6 7 8 9 10 11 12 13 14

000
FTUS43 KMPX 131700
TAFRWF
TAF
KRWF 131721Z 1318/1418 35018G28KT P6SM BKN015 OVC030
     FM132200 35020G30KT P6SM BKN020 BKN050
     FM140200 33016G22KT P6SM SCT050 BKN100=

USA.gov is the U.S. government's official web portal to all federal, state and local government web resources and services.